createdAt,value
2018-04-01T00:00:51.955Z,4.20
2018-04-01T00:03:19.005Z,3.33
2018-04-01T00:05:46.034Z,3.95
2018-04-01T00:08:13.087Z,3.70
2018-04-01T00:10:40.122Z,3.17
2018-04-01T00:13:07.938Z,3.65
2018-04-01T00:15:34.968Z,4.68
2018-04-01T00:18:02.027Z,3.87
2018-04-01T00:20:29.065Z,3.50
2018-04-01T00:22:56.108Z,4.18
2018-04-01T00:25:23.178Z,3.70
2018-04-01T00:27:50.233Z,3.62
2018-04-01T00:30:17.266Z,3.75
2018-04-01T00:32:44.318Z,3.72
2018-04-01T00:35:11.350Z,3.22
2018-04-01T00:37:38.402Z,3.42
2018-04-01T00:40:05.434Z,3.95
2018-04-01T00:42:32.498Z,3.95
2018-04-01T00:44:59.532Z,3.97
2018-04-01T00:47:26.563Z,3.55
2018-04-01T00:49:53.613Z,3.10
2018-04-01T00:52:21.413Z,2.78
2018-04-01T00:54:48.475Z,3.53
2018-04-01T00:57:15.506Z,3.00
2018-04-01T00:59:42.559Z,2.67
2018-04-01T01:02:09.595Z,2.70
2018-04-01T01:04:36.656Z,2.83
2018-04-01T01:07:03.686Z,2.60
2018-04-01T01:09:31.502Z,3.20
2018-04-01T01:11:58.536Z,3.08
2018-04-01T01:14:25.590Z,3.58
2018-04-01T01:16:52.625Z,3.80
2018-04-01T01:19:19.673Z,3.53
2018-04-01T01:21:46.710Z,4.10
2018-04-01T01:24:14.521Z,4.00
2018-04-01T01:26:41.551Z,4.40
2018-04-01T01:29:08.586Z,3.97
2018-04-01T01:31:35.640Z,4.50
2018-04-01T01:34:02.665Z,4.75
2018-04-01T01:36:30.477Z,3.72
2018-04-01T01:38:57.514Z,3.90
2018-04-01T01:41:24.569Z,4.37
2018-04-01T01:43:51.595Z,3.70
2018-04-01T01:46:18.645Z,4.60
2018-04-01T01:48:45.675Z,4.12
2018-04-01T01:51:13.485Z,4.07
2018-04-01T01:53:40.509Z,4.75
2018-04-01T01:56:07.568Z,3.53
2018-04-01T01:58:34.597Z,3.60
2018-04-01T02:01:02.415Z,4.95
2018-04-01T02:03:29.446Z,4.70
2018-04-01T02:05:56.481Z,4.55
2018-04-01T02:08:23.533Z,4.93
2018-04-01T02:10:50.562Z,3.85
2018-04-01T02:13:18.379Z,5.05
2018-04-01T02:15:45.410Z,4.85
2018-04-01T02:18:12.469Z,4.40
2018-04-01T02:20:39.510Z,3.87
2018-04-01T02:23:06.571Z,4.80
2018-04-01T02:25:33.603Z,4.12
2018-04-01T02:28:00.650Z,3.92
2018-04-01T02:30:28.377Z,3.87
2018-04-01T02:32:56.198Z,4.10
2018-04-01T02:35:23.231Z,5.37
2018-04-01T02:37:50.280Z,4.95
2018-04-01T02:40:17.314Z,3.85
2018-04-01T02:42:44.373Z,4.57
2018-04-01T02:45:11.410Z,4.85
2018-04-01T02:47:38.447Z,4.40
2018-04-01T02:50:05.512Z,3.90
2018-04-01T02:52:32.551Z,3.90
2018-04-01T02:55:00.365Z,4.53
2018-04-01T02:57:27.400Z,4.07
2018-04-01T02:59:54.458Z,3.70
2018-04-01T03:02:21.494Z,4.90
2018-04-01T03:04:48.545Z,5.50
2018-04-01T03:07:15.575Z,3.85
2018-04-01T03:09:42.632Z,4.25
2018-04-01T03:12:09.668Z,4.72
2018-04-01T03:14:36.722Z,4.07
2018-04-01T03:17:03.753Z,4.10
2018-04-01T03:19:30.790Z,4.43
2018-04-01T03:21:58.607Z,4.22
2018-04-01T03:24:25.634Z,3.90
2018-04-01T03:26:52.681Z,4.07
2018-04-01T03:29:19.710Z,4.53
2018-04-01T03:31:47.524Z,4.80
2018-04-01T03:34:14.557Z,3.55
2018-04-01T03:36:41.615Z,4.18
2018-04-01T03:39:08.641Z,4.55
2018-04-01T03:41:35.696Z,3.92
2018-04-01T03:44:02.731Z,4.97
2018-04-01T03:46:30.551Z,4.45
2018-04-01T03:48:57.583Z,4.40
2018-04-01T03:51:24.635Z,4.57
2018-04-01T03:53:51.665Z,4.87
2018-04-01T03:56:18.731Z,4.45
2018-04-01T03:58:45.762Z,5.72
2018-04-01T04:01:12.831Z,4.68
2018-04-01T04:03:39.863Z,4.68
2018-04-01T04:06:06.894Z,3.87
2018-04-01T04:08:34.711Z,5.25
2018-04-01T04:11:01.744Z,4.60
2018-04-01T04:13:28.785Z,4.22
2018-04-01T04:15:55.814Z,4.55
2018-04-01T04:18:22.863Z,4.95
2018-04-01T04:20:49.896Z,4.60
2018-04-01T04:23:17.706Z,5.05
2018-04-01T04:25:44.730Z,4.85
2018-04-01T04:28:11.807Z,4.95
2018-04-01T04:30:38.831Z,5.87
2018-04-01T04:33:05.876Z,6.22
2018-04-01T04:35:32.950Z,6.20
2018-04-01T04:38:00.005Z,6.30
2018-04-01T04:40:27.038Z,6.78
2018-04-01T04:42:54.106Z,5.78
2018-04-01T04:45:21.150Z,5.43
2018-04-01T04:47:48.173Z,5.70
2018-04-01T04:50:15.223Z,5.85
2018-04-01T04:52:42.294Z,6.30
2018-04-01T04:55:09.342Z,6.93
2018-04-01T04:57:36.372Z,5.65
2018-04-01T05:00:03.429Z,7.55
2018-04-01T05:02:30.462Z,6.62
2018-04-01T05:04:58.284Z,8.13
2018-04-01T05:07:25.309Z,5.45
2018-04-01T05:09:52.357Z,5.28
2018-04-01T05:12:19.386Z,4.97
2018-04-01T05:14:46.429Z,4.65
2018-04-01T05:17:13.458Z,5.28
2018-04-01T05:19:41.275Z,5.68
2018-04-01T05:22:08.307Z,4.85
2018-04-01T05:24:35.349Z,4.72
2018-04-01T05:27:02.372Z,5.95
2018-04-01T05:29:30.170Z,4.53
2018-04-01T05:31:57.224Z,4.90
2018-04-01T05:34:24.258Z,4.80
2018-04-01T05:36:51.310Z,4.75
2018-04-01T05:39:18.342Z,5.10
2018-04-01T05:41:46.154Z,6.03
2018-04-01T05:44:13.198Z,5.25
2018-04-01T05:46:40.245Z,5.50
2018-04-01T05:49:07.278Z,5.32
2018-04-01T05:51:34.407Z,5.28
2018-04-01T05:54:01.384Z,8.65
2018-04-01T05:56:28.446Z,10.75
2018-04-01T05:58:55.523Z,9.20
2018-04-01T06:01:22.569Z,7.20
2018-04-01T06:03:49.606Z,8.17
2018-04-01T06:06:16.662Z,7.37
2018-04-01T06:08:43.693Z,6.67
2018-04-01T06:11:10.727Z,7.63
2018-04-01T06:13:37.785Z,6.13
2018-04-01T06:16:04.813Z,6.10
2018-04-01T06:18:31.866Z,6.40
2018-04-01T06:20:58.897Z,6.47
2018-04-01T06:23:26.714Z,6.87
2018-04-01T06:25:53.741Z,6.30
2018-04-01T06:28:20.788Z,5.77
2018-04-01T06:30:47.818Z,7.87
2018-04-01T06:33:14.873Z,6.53
2018-04-01T06:35:41.907Z,5.63
2018-04-01T06:38:09.714Z,5.80
2018-04-01T06:40:36.753Z,5.47
2018-04-01T06:43:03.799Z,5.67
2018-04-01T06:45:30.835Z,4.80
2018-04-01T06:47:57.890Z,5.37
2018-04-01T06:50:24.913Z,5.30
2018-04-01T06:52:52.727Z,4.33
2018-04-01T06:55:19.752Z,4.60
2018-04-01T06:57:46.787Z,3.83
2018-04-01T07:00:13.836Z,3.50
2018-04-01T07:02:41.627Z,3.93
2018-04-01T07:05:08.674Z,4.37
2018-04-01T07:07:35.699Z,4.27
2018-04-01T07:10:03.511Z,4.20
2018-04-01T07:12:30.532Z,3.87
2018-04-01T07:14:57.603Z,4.93
2018-04-01T07:17:24.631Z,4.57
2018-04-01T07:19:51.679Z,3.93
2018-04-01T07:22:18.706Z,3.43
2018-04-01T07:24:46.518Z,4.50
2018-04-01T07:27:13.545Z,4.93
2018-04-01T07:29:40.598Z,4.30
2018-04-01T07:32:07.632Z,4.40
2018-04-01T07:34:34.678Z,4.77
2018-04-01T07:37:01.711Z,4.20
2018-04-01T07:39:29.522Z,7.50
2018-04-01T07:41:56.545Z,5.40
2018-04-01T07:44:23.613Z,6.90
2018-04-01T07:46:50.637Z,5.90
2018-04-01T07:49:17.666Z,6.07
2018-04-01T07:51:44.715Z,6.53
2018-04-01T07:54:11.742Z,7.20
2018-04-01T07:56:38.786Z,7.47
2018-04-01T07:59:05.823Z,7.33
2018-04-01T08:01:32.871Z,7.30
2018-04-01T08:03:59.893Z,7.13
2018-04-01T08:06:26.935Z,7.10
2018-04-01T08:08:53.970Z,8.37
2018-04-01T08:11:21.783Z,7.87
2018-04-01T08:13:48.810Z,8.20
2018-04-01T08:16:15.860Z,10.10
2018-04-01T08:21:16.306Z,10.43
2018-04-01T08:23:43.338Z,9.63
2018-04-01T08:26:10.391Z,10.33
2018-04-01T08:28:37.422Z,12.10
2018-04-01T08:31:04.490Z,11.80
2018-04-01T08:33:32.291Z,12.20
2018-04-01T08:35:59.347Z,11.57
2018-04-01T08:38:26.389Z,11.13
2018-04-01T08:40:53.438Z,13.07
2018-04-01T08:43:20.470Z,10.33
2018-04-01T08:45:47.523Z,10.30
2018-04-01T08:48:14.563Z,10.80
2018-04-01T08:50:41.631Z,11.47
2018-04-01T08:53:08.657Z,11.33
2018-04-01T08:55:35.693Z,12.70
2018-04-01T08:58:02.749Z,11.03
2018-04-01T09:00:30.543Z,12.40
2018-04-01T09:02:57.599Z,12.67
2018-04-01T09:05:24.632Z,12.63
2018-04-01T09:07:51.683Z,11.80
2018-04-01T09:10:18.714Z,12.27
2018-04-01T09:12:46.529Z,14.73
2018-04-01T09:15:13.559Z,11.73
2018-04-01T09:17:40.601Z,9.63
2018-04-01T09:20:07.642Z,7.67
2018-04-01T09:22:34.696Z,3.80
2018-04-01T09:25:01.731Z,2.60
2018-04-01T09:27:28.757Z,1.73
2018-04-01T09:29:55.808Z,2.00
2018-04-01T09:32:22.838Z,2.43
2018-04-01T09:34:49.898Z,2.13
2018-04-01T09:37:16.921Z,1.60
2018-04-01T09:39:43.967Z,1.43
2018-04-01T09:42:11.005Z,1.90
2018-04-01T09:44:38.057Z,5.20
2018-04-01T09:47:05.078Z,2.27
2018-04-01T09:49:32.120Z,1.30
2018-04-01T09:51:59.913Z,1.63
2018-04-01T09:54:26.979Z,1.90
2018-04-01T09:56:54.007Z,2.10
2018-04-01T09:59:21.055Z,2.23
2018-04-01T10:01:48.567Z,2.40
2018-04-01T10:04:16.178Z,3.10
2018-04-01T10:06:43.703Z,2.80
2018-04-01T10:09:11.982Z,2.93
2018-04-01T10:11:40.303Z,2.87
2018-04-01T10:14:07.823Z,2.07
2018-04-01T10:16:36.130Z,3.07
2018-04-01T10:19:03.644Z,2.57
2018-04-01T10:21:31.949Z,2.20
2018-04-01T10:24:00.239Z,2.20
2018-04-01T10:26:27.778Z,2.63
2018-04-01T10:28:56.112Z,3.80
2018-04-01T10:31:23.650Z,4.20
2018-04-01T10:33:51.164Z,4.63
2018-04-01T10:36:18.702Z,3.93
2018-04-01T10:38:46.224Z,3.77
2018-04-01T10:41:13.770Z,4.07
2018-04-01T10:43:43.801Z,3.80
2018-04-01T10:46:11.343Z,4.80
2018-04-01T10:48:39.631Z,4.43
2018-04-01T10:51:07.173Z,4.67
2018-04-01T10:53:35.459Z,4.70
2018-04-01T10:56:03.270Z,5.20
2018-04-01T10:58:30.289Z,5.83
2018-04-01T11:00:57.333Z,5.00
2018-04-01T11:03:25.128Z,5.17
2018-04-01T11:05:52.173Z,5.83
2018-04-01T11:08:19.198Z,6.57
2018-04-01T11:10:47.018Z,6.70
2018-04-01T11:13:14.047Z,7.97
2018-04-01T11:15:41.074Z,6.23
2018-04-01T11:18:08.176Z,8.23
2018-04-01T11:20:35.171Z,8.70
2018-04-01T11:23:02.210Z,8.07
2018-04-01T11:25:30.005Z,7.37
2018-04-01T11:27:57.051Z,6.77
2018-04-01T11:30:24.088Z,8.33
2018-04-01T11:32:51.135Z,6.77
2018-04-01T11:35:18.162Z,6.50
2018-04-01T11:37:45.982Z,7.70
2018-04-01T11:40:13.009Z,7.80
2018-04-01T11:42:40.060Z,6.83
2018-04-01T11:45:07.089Z,6.73
2018-04-01T11:47:34.162Z,6.50
2018-04-01T11:50:01.200Z,6.97
2018-04-01T11:52:28.230Z,5.70
2018-04-01T11:54:56.044Z,6.30
2018-04-01T11:57:23.080Z,5.17
2018-04-01T11:59:50.134Z,5.23
2018-04-01T12:02:17.163Z,5.20
2018-04-01T12:04:44.210Z,5.03
2018-04-01T12:07:11.237Z,5.80
2018-04-01T12:09:39.050Z,4.30
2018-04-01T12:12:06.073Z,3.87
2018-04-01T12:14:33.119Z,4.00
2018-04-01T12:17:00.141Z,2.83
2018-04-01T12:19:27.952Z,2.20
2018-04-01T12:21:54.982Z,1.63
2018-04-01T12:24:22.040Z,1.70
2018-04-01T12:26:49.127Z,2.03
2018-04-01T12:29:16.134Z,2.53
2018-04-01T12:31:43.157Z,2.80
2018-04-01T12:34:10.973Z,2.97
2018-04-01T12:36:38.007Z,3.50
2018-04-01T12:39:05.037Z,2.70
2018-04-01T12:41:32.085Z,2.83
2018-04-01T12:43:59.118Z,1.73
2018-04-01T12:46:26.938Z,2.43
2018-04-01T12:48:53.966Z,1.80
2018-04-01T12:51:21.024Z,2.13
2018-04-01T12:53:48.056Z,1.90
2018-04-01T12:56:15.139Z,1.60
2018-04-01T12:58:42.611Z,1.63
2018-04-01T13:01:09.666Z,1.30
2018-04-01T13:03:36.694Z,1.20
2018-04-01T13:06:03.741Z,1.93
2018-04-01T13:08:30.769Z,1.57
2018-04-01T13:10:57.811Z,1.57
2018-04-01T13:13:24.838Z,1.83
2018-04-01T13:15:52.643Z,1.47
2018-04-01T13:18:19.681Z,1.80
2018-04-01T13:20:46.711Z,1.50
2018-04-01T13:23:13.760Z,1.93
2018-04-01T13:25:40.787Z,2.23
2018-04-01T13:28:08.608Z,2.10
2018-04-01T13:30:35.633Z,2.20
2018-04-01T13:33:02.682Z,2.00
2018-04-01T13:35:29.713Z,2.67
2018-04-01T13:37:57.533Z,2.90
2018-04-01T13:40:24.554Z,2.93
2018-04-01T13:42:51.598Z,2.90
2018-04-01T13:45:18.629Z,4.37
2018-04-01T13:47:45.678Z,3.30
2018-04-01T13:50:12.706Z,3.90
2018-04-01T13:52:40.523Z,3.03
2018-04-01T13:55:07.560Z,3.50
2018-04-01T13:57:34.601Z,3.57
2018-04-01T14:00:01.663Z,2.70
2018-04-01T14:02:28.718Z,3.33
2018-04-01T14:04:55.745Z,2.73
2018-04-01T14:07:22.770Z,4.10
2018-04-01T14:09:50.573Z,4.00
2018-04-01T14:12:17.595Z,3.53
2018-04-01T14:14:44.644Z,3.60
2018-04-01T14:17:11.667Z,4.80
2018-04-01T14:19:38.711Z,5.93
2018-04-01T14:22:05.739Z,3.70
2018-04-01T14:24:32.786Z,3.33
2018-04-01T14:26:59.818Z,2.60
2018-04-01T14:29:26.862Z,3.73
2018-04-01T14:31:53.895Z,3.90
2018-04-01T14:34:20.937Z,3.67
2018-04-01T14:36:47.958Z,3.60
2018-04-01T14:39:15.006Z,3.40
2018-04-01T14:41:42.034Z,3.30
2018-04-01T14:44:09.079Z,3.60
2018-04-01T14:46:36.105Z,4.10
2018-04-01T14:49:03.150Z,3.27
2018-04-01T14:51:30.173Z,4.23
2018-04-01T14:53:57.982Z,3.97
2018-04-01T14:56:25.015Z,3.87
2018-04-01T14:58:52.061Z,3.57
2018-04-01T15:01:19.091Z,3.37
2018-04-01T15:03:46.138Z,3.80
2018-04-01T15:06:13.163Z,4.10
2018-04-01T15:08:40.991Z,3.30
2018-04-01T15:11:08.030Z,3.70
2018-04-01T15:13:35.055Z,4.80
2018-04-01T15:16:02.106Z,5.10
2018-04-01T15:18:29.169Z,4.90
2018-04-01T15:20:56.219Z,4.20
2018-04-01T15:23:23.255Z,4.60
2018-04-01T15:25:50.302Z,3.87
2018-04-01T15:28:17.338Z,4.30
2018-04-01T15:30:45.150Z,3.33
2018-04-01T15:33:12.181Z,4.53
2018-04-01T15:35:39.228Z,4.67
2018-04-01T15:38:06.264Z,5.10
2018-04-01T15:40:34.964Z,5.70
2018-04-01T15:43:02.006Z,4.90
2018-04-01T15:45:29.055Z,4.23
2018-04-01T15:47:56.089Z,4.27
2018-04-01T15:50:23.898Z,7.50
2018-04-01T15:52:50.930Z,6.83
2018-04-01T15:55:17.994Z,5.10
2018-04-01T15:57:45.020Z,5.07
2018-04-01T16:00:12.072Z,5.50
2018-04-01T16:02:39.118Z,5.30
2018-04-01T16:05:06.168Z,4.90
2018-04-01T16:07:33.197Z,5.73
2018-04-01T16:10:00.218Z,5.17
2018-04-01T16:12:27.264Z,5.30
2018-04-01T16:14:54.295Z,5.87
2018-04-01T16:17:21.338Z,5.00
2018-04-01T16:19:48.368Z,5.63
2018-04-01T16:22:15.422Z,5.10
2018-04-01T16:24:42.449Z,5.50
2018-04-01T16:27:09.499Z,6.10
2018-04-01T16:29:36.531Z,6.10
2018-04-01T16:32:03.578Z,7.63
2018-04-01T16:34:31.376Z,11.53
2018-04-01T16:36:58.423Z,8.57
2018-04-01T16:39:25.453Z,8.00
2018-04-01T16:41:52.502Z,8.30
2018-04-01T16:44:19.532Z,6.23
2018-04-01T16:46:47.337Z,5.63
2018-04-01T16:49:14.365Z,5.27
2018-04-01T16:51:41.413Z,5.40
2018-04-01T16:54:08.613Z,5.33
2018-04-01T16:56:35.659Z,4.10
2018-04-01T16:59:04.220Z,4.77
2018-04-01T17:01:32.293Z,5.47
2018-04-01T17:03:59.318Z,4.73
2018-04-01T17:06:26.347Z,6.77
2018-04-01T17:08:54.157Z,4.90
2018-04-01T17:11:21.185Z,7.00
2018-04-01T17:13:48.225Z,6.87
2018-04-01T17:16:16.014Z,6.03
2018-04-01T17:18:43.058Z,6.30
2018-04-01T17:21:10.081Z,6.03
2018-04-01T17:23:37.898Z,6.80
2018-04-01T17:26:04.930Z,6.20
2018-04-01T17:28:31.986Z,4.47
2018-04-01T17:30:59.014Z,8.83
2018-04-01T17:33:26.074Z,6.77
2018-04-01T17:35:53.102Z,6.60
2018-04-01T17:38:20.150Z,5.00
2018-04-01T17:40:47.182Z,4.90
2018-04-01T17:43:14.998Z,5.73
2018-04-01T17:45:42.025Z,5.20
2018-04-01T17:48:09.071Z,5.87
2018-04-01T17:50:36.094Z,6.07
2018-04-01T17:53:03.889Z,5.70
2018-04-01T17:55:30.934Z,6.80
2018-04-01T17:57:57.963Z,6.20
2018-04-01T18:00:26.078Z,6.23
2018-04-01T18:02:53.114Z,6.00
2018-04-01T18:05:20.175Z,7.10
2018-04-01T18:07:47.198Z,5.60
2018-04-01T18:10:15.016Z,6.57
2018-04-01T18:12:42.043Z,6.80
2018-04-01T18:15:09.089Z,7.40
2018-04-01T18:17:36.130Z,7.17
2018-04-01T18:20:03.181Z,5.70
2018-04-01T18:22:30.211Z,6.37
2018-04-01T18:24:57.262Z,7.40
2018-04-01T18:27:25.055Z,6.00
2018-04-01T18:29:52.093Z,7.97
2018-04-01T18:32:19.121Z,6.63
2018-04-01T18:34:46.939Z,5.23
2018-04-01T18:37:13.962Z,5.10
2018-04-01T18:39:40.990Z,6.90
2018-04-01T18:42:08.806Z,7.57
2018-04-01T18:44:35.830Z,10.40
2018-04-01T18:47:02.884Z,12.07
2018-04-01T18:49:29.910Z,9.70
2018-04-01T18:51:57.735Z,6.97
2018-04-01T18:54:24.866Z,6.50
2018-04-01T18:56:51.914Z,7.40
2018-04-01T18:59:18.955Z,9.00
2018-04-01T19:01:46.011Z,9.40
2018-04-01T19:04:13.037Z,9.10
2018-04-01T19:06:40.086Z,7.93
2018-04-01T19:09:07.125Z,9.03
2018-04-01T19:11:34.186Z,8.00
2018-04-01T19:14:01.211Z,5.43
2018-04-01T19:16:29.520Z,6.13
2018-04-01T19:18:57.037Z,6.53
2018-04-01T19:21:24.574Z,6.23
2018-04-01T19:23:52.092Z,6.70
2018-04-01T19:26:19.631Z,7.80
2018-04-01T19:28:47.180Z,7.17
2018-04-01T19:31:14.687Z,9.40
2018-04-01T19:33:42.228Z,7.67
2018-04-01T19:36:10.509Z,9.03
2018-04-01T19:38:38.046Z,9.47
2018-04-01T19:41:05.568Z,7.70
2018-04-01T19:43:33.107Z,7.67
2018-04-01T19:46:00.626Z,8.70
2018-04-01T19:48:28.160Z,7.13
2018-04-01T19:50:55.676Z,9.57
2018-04-01T19:53:24.037Z,9.10
2018-04-01T19:55:51.527Z,8.70
2018-04-01T19:58:19.062Z,8.73
2018-04-01T20:00:47.350Z,9.77
2018-04-01T20:03:15.650Z,9.57
2018-04-01T20:05:43.178Z,10.27
2018-04-01T20:08:11.490Z,8.73
2018-04-01T20:10:39.011Z,8.20
2018-04-01T20:13:06.542Z,7.80
2018-04-01T20:15:34.086Z,8.17
2018-04-01T20:18:01.631Z,7.70
2018-04-01T20:20:29.218Z,10.77
2018-04-01T20:22:56.763Z,10.17
2018-04-01T20:25:24.290Z,10.67
2018-04-01T20:27:52.594Z,9.50
2018-04-01T20:30:20.175Z,10.17
2018-04-01T20:32:47.700Z,8.80
2018-04-01T20:35:16.006Z,9.27
2018-04-01T20:37:43.584Z,8.50
2018-04-01T20:40:11.081Z,9.73
2018-04-01T20:42:39.371Z,10.27
2018-04-01T20:45:07.682Z,8.00
2018-04-01T20:47:35.206Z,8.47
2018-04-01T20:50:03.516Z,9.70
2018-04-01T20:52:31.045Z,12.47
2018-04-01T20:54:59.348Z,11.00
2018-04-01T20:57:26.869Z,11.87
2018-04-01T20:59:54.404Z,10.73
2018-04-01T21:02:21.929Z,11.70
2018-04-01T21:04:49.471Z,10.60
2018-04-01T21:07:17.767Z,11.80
2018-04-01T21:09:45.309Z,11.10
2018-04-01T21:12:13.594Z,8.57
2018-04-01T21:14:41.137Z,11.17
2018-04-01T21:17:08.658Z,13.70
2018-04-01T21:19:36.207Z,11.33
2018-04-01T21:22:03.733Z,14.73
2018-04-01T21:24:32.018Z,15.60
2018-04-01T21:26:59.557Z,14.67
2018-04-01T21:29:27.862Z,14.50
2018-04-01T21:31:55.417Z,14.17
2018-04-01T21:34:22.946Z,14.07
2018-04-01T21:36:51.995Z,14.40
2018-04-01T21:39:19.564Z,17.10
2018-04-01T21:41:47.078Z,15.67
2018-04-01T21:44:14.598Z,18.07
2018-04-01T21:46:42.143Z,16.97
2018-04-01T21:49:09.668Z,16.47
2018-04-01T21:51:37.979Z,18.07
2018-04-01T21:54:05.497Z,15.73
2018-04-01T21:56:33.807Z,16.27
2018-04-01T21:59:01.386Z,15.43
2018-04-01T22:01:28.936Z,14.03
2018-04-01T22:03:56.458Z,14.43
2018-04-01T22:06:23.999Z,13.33
2018-04-01T22:08:51.564Z,14.70
2018-04-01T22:11:19.074Z,12.30
2018-04-01T22:13:46.594Z,14.13
2018-04-01T22:16:14.143Z,13.07
2018-04-01T22:18:41.923Z,14.50
2018-04-01T22:21:09.442Z,13.63
2018-04-01T22:23:36.985Z,11.03
2018-04-01T22:26:04.506Z,13.40
2018-04-01T22:28:32.051Z,14.27
2018-04-01T22:30:59.579Z,15.50
2018-04-01T22:33:27.117Z,16.07
2018-04-01T22:35:54.698Z,17.53
2018-04-01T22:38:22.242Z,15.53
2018-04-01T22:40:49.761Z,17.57
2018-04-01T22:43:17.302Z,16.40
2018-04-01T22:45:44.818Z,15.23
2018-04-01T22:48:12.359Z,17.90
2018-04-01T22:50:40.648Z,16.80
2018-04-01T22:53:08.957Z,16.70
2018-04-01T22:55:36.491Z,18.13
2018-04-01T22:58:04.042Z,17.43
2018-04-01T23:00:32.337Z,20.17
2018-04-01T23:02:59.881Z,18.83
2018-04-01T23:05:28.166Z,20.73
2018-04-01T23:07:56.479Z,19.80
2018-04-01T23:10:24.037Z,20.87
2018-04-01T23:12:51.567Z,17.97
2018-04-01T23:15:19.859Z,21.10
2018-04-01T23:17:47.403Z,20.47
2018-04-01T23:20:15.694Z,22.03
2018-04-01T23:22:43.233Z,20.73
2018-04-01T23:25:11.550Z,20.30
2018-04-01T23:27:39.063Z,20.80
2018-04-01T23:30:06.606Z,20.67
2018-04-01T23:32:34.139Z,19.70
2018-04-01T23:35:01.677Z,21.80
2018-04-01T23:37:29.194Z,19.63
2018-04-01T23:39:56.737Z,21.23
2018-04-01T23:42:24.257Z,21.50
2018-04-01T23:44:51.802Z,22.57
2018-04-01T23:47:20.089Z,20.80
2018-04-01T23:49:48.390Z,20.70
2018-04-01T23:52:15.913Z,20.23
2018-04-01T23:54:44.232Z,18.50
2018-04-01T23:57:11.761Z,19.33
2018-04-01T23:59:40.065Z,21.10
